sensor_id;sensor_type;location;lat;lon;timestamp;temperature;humidity
4376;DHT22;2202;50.866;12.750;2023-02-10T00:01:39;-3.60;81.80
4376;DHT22;2202;50.866;12.750;2023-02-10T00:04:06;-3.60;81.80
4376;DHT22;2202;50.866;12.750;2023-02-10T00:06:33;-3.60;81.60
4376;DHT22;2202;50.866;12.750;2023-02-10T00:09:01;-3.50;81.40
4376;DHT22;2202;50.866;12.750;2023-02-10T00:11:29;-3.50;81.40
4376;DHT22;2202;50.866;12.750;2023-02-10T00:14:16;-3.50;81.40
4376;DHT22;2202;50.866;12.750;2023-02-10T00:16:44;-3.50;81.00
4376;DHT22;2202;50.866;12.750;2023-02-10T00:19:11;-3.40;81.00
4376;DHT22;2202;50.866;12.750;2023-02-10T00:21:38;-3.30;80.40
4376;DHT22;2202;50.866;12.750;2023-02-10T00:24:05;-3.30;80.00
4376;DHT22;2202;50.866;12.750;2023-02-10T00:26:32;-3.30;80.00
4376;DHT22;2202;50.866;12.750;2023-02-10T00:28:59;-3.20;79.40
4376;DHT22;2202;50.866;12.750;2023-02-10T00:31:27;-3.20;79.00
4376;DHT22;2202;50.866;12.750;2023-02-10T00:33:54;-3.20;78.60
4376;DHT22;2202;50.866;12.750;2023-02-10T00:36:21;-3.20;78.40
4376;DHT22;2202;50.866;12.750;2023-02-10T00:38:50;-3.10;78.40
4376;DHT22;2202;50.866;12.750;2023-02-10T00:41:19;-3.10;78.40
4376;DHT22;2202;50.866;12.750;2023-02-10T00:43:46;-3.20;78.20
4376;DHT22;2202;50.866;12.750;2023-02-10T00:46:15;-3.40;79.20
4376;DHT22;2202;50.866;12.750;2023-02-10T00:48:45;-3.40;79.40
4376;DHT22;2202;50.866;12.750;2023-02-10T00:51:13;-3.40;79.20
4376;DHT22;2202;50.866;12.750;2023-02-10T00:53:40;-3.40;79.40
4376;DHT22;2202;50.866;12.750;2023-02-10T00:56:07;-3.40;79.20
4376;DHT22;2202;50.866;12.750;2023-02-10T00:58:35;-3.40;79.40
4376;DHT22;2202;50.866;12.750;2023-02-10T01:01:02;-3.50;79.20
4376;DHT22;2202;50.866;12.750;2023-02-10T01:03:29;-3.60;79.60
4376;DHT22;2202;50.866;12.750;2023-02-10T01:05:58;-3.60;80.00
4376;DHT22;2202;50.866;12.750;2023-02-10T01:08:24;-3.70;80.40
4376;DHT22;2202;50.866;12.750;2023-02-10T01:10:58;-3.70;80.60
4376;DHT22;2202;50.866;12.750;2023-02-10T01:13:25;-3.70;80.40
4376;DHT22;2202;50.866;12.750;2023-02-10T01:15:52;-3.70;80.60
4376;DHT22;2202;50.866;12.750;2023-02-10T01:18:19;-3.70;80.40
4376;DHT22;2202;50.866;12.750;2023-02-10T01:20:46;-3.80;80.60
4376;DHT22;2202;50.866;12.750;2023-02-10T01:23:14;-3.80;81.00
4376;DHT22;2202;50.866;12.750;2023-02-10T01:25:41;-3.70;81.00
4376;DHT22;2202;50.866;12.750;2023-02-10T01:28:09;-3.70;80.80
4376;DHT22;2202;50.866;12.750;2023-02-10T01:30:36;-3.80;80.40
4376;DHT22;2202;50.866;12.750;2023-02-10T01:33:03;-3.80;81.00
4376;DHT22;2202;50.866;12.750;2023-02-10T01:35:30;-3.60;80.40
4376;DHT22;2202;50.866;12.750;2023-02-10T01:37:57;-3.70;80.40
4376;DHT22;2202;50.866;12.750;2023-02-10T01:40:26;-3.70;80.60
4376;DHT22;2202;50.866;12.750;2023-02-10T01:42:53;-3.70;80.60
4376;DHT22;2202;50.866;12.750;2023-02-10T01:45:24;-3.80;80.40
4376;DHT22;2202;50.866;12.750;2023-02-10T01:47:52;-3.90;80.80
4376;DHT22;2202;50.866;12.750;2023-02-10T01:50:23;-3.90;81.40
4376;DHT22;2202;50.866;12.750;2023-02-10T01:52:51;-3.90;81.80
4376;DHT22;2202;50.866;12.750;2023-02-10T01:55:21;-3.90;81.60
4376;DHT22;2202;50.866;12.750;2023-02-10T01:57:51;-3.90;81.80
4376;DHT22;2202;50.866;12.750;2023-02-10T02:00:20;-3.90;81.80
4376;DHT22;2202;50.866;12.750;2023-02-10T02:02:48;-3.80;81.80
4376;DHT22;2202;50.866;12.750;2023-02-10T02:05:23;-3.70;81.60
4376;DHT22;2202;50.866;12.750;2023-02-10T02:07:53;-3.70;81.40
4376;DHT22;2202;50.866;12.750;2023-02-10T02:10:23;-3.80;81.80
4376;DHT22;2202;50.866;12.750;2023-02-10T02:12:57;-3.80;81.60
4376;DHT22;2202;50.866;12.750;2023-02-10T02:15:30;-3.80;81.60
4376;DHT22;2202;50.866;12.750;2023-02-10T02:18:05;-3.80;81.80
4376;DHT22;2202;50.866;12.750;2023-02-10T02:20:59;-3.70;81.60
4376;DHT22;2202;50.866;12.750;2023-02-10T02:23:51;-3.80;81.40
4376;DHT22;2202;50.866;12.750;2023-02-10T02:26:30;-3.80;81.60
4376;DHT22;2202;50.866;12.750;2023-02-10T02:29:14;-3.80;81.60
4376;DHT22;2202;50.866;12.750;2023-02-10T02:31:50;-3.70;81.40
4376;DHT22;2202;50.866;12.750;2023-02-10T02:34:24;-3.80;81.60
4376;DHT22;2202;50.866;12.750;2023-02-10T02:36:57;-3.80;81.60
4376;DHT22;2202;50.866;12.750;2023-02-10T02:39:27;-3.80;81.80
4376;DHT22;2202;50.866;12.750;2023-02-10T02:42:16;-3.70;81.80
4376;DHT22;2202;50.866;12.750;2023-02-10T02:44:44;-3.70;81.00
4376;DHT22;2202;50.866;12.750;2023-02-10T02:47:18;-3.70;81.20
4376;DHT22;2202;50.866;12.750;2023-02-10T02:49:52;-3.60;81.40
4376;DHT22;2202;50.866;12.750;2023-02-10T02:52:31;-3.50;81.80
4376;DHT22;2202;50.866;12.750;2023-02-10T02:55:05;-3.40;81.60
4376;DHT22;2202;50.866;12.750;2023-02-10T02:57:40;-3.30;81.40
4376;DHT22;2202;50.866;12.750;2023-02-10T03:00:10;-3.20;80.60
4376;DHT22;2202;50.866;12.750;2023-02-10T03:02:39;-3.00;80.20
4376;DHT22;2202;50.866;12.750;2023-02-10T03:05:07;-2.90;80.00
4376;DHT22;2202;50.866;12.750;2023-02-10T03:07:34;-2.90;79.40
4376;DHT22;2202;50.866;12.750;2023-02-10T03:10:01;-2.80;78.40
4376;DHT22;2202;50.866;12.750;2023-02-10T03:12:28;-2.80;78.40
4376;DHT22;2202;50.866;12.750;2023-02-10T03:14:55;-2.80;78.40
4376;DHT22;2202;50.866;12.750;2023-02-10T03:17:22;-2.80;78.40
4376;DHT22;2202;50.866;12.750;2023-02-10T03:19:50;-2.70;78.80
4376;DHT22;2202;50.866;12.750;2023-02-10T03:22:17;-2.70;78.60
4376;DHT22;2202;50.866;12.750;2023-02-10T03:24:44;-2.70;78.40
4376;DHT22;2202;50.866;12.750;2023-02-10T03:27:10;-2.70;78.60
4376;DHT22;2202;50.866;12.750;2023-02-10T03:29:37;-2.70;78.20
4376;DHT22;2202;50.866;12.750;2023-02-10T03:32:04;-2.60;78.20
4376;DHT22;2202;50.866;12.750;2023-02-10T03:34:31;-2.60;77.80
4376;DHT22;2202;50.866;12.750;2023-02-10T03:37:00;-2.60;77.80
4376;DHT22;2202;50.866;12.750;2023-02-10T03:39:27;-2.60;78.00
4376;DHT22;2202;50.866;12.750;2023-02-10T03:41:54;-2.60;78.20
4376;DHT22;2202;50.866;12.750;2023-02-10T03:44:20;-2.60;78.40
4376;DHT22;2202;50.866;12.750;2023-02-10T03:46:47;-2.60;79.00
4376;DHT22;2202;50.866;12.750;2023-02-10T03:49:14;-2.50;79.00
4376;DHT22;2202;50.866;12.750;2023-02-10T03:51:41;-2.40;79.00
4376;DHT22;2202;50.866;12.750;2023-02-10T03:54:09;-2.30;78.40
4376;DHT22;2202;50.866;12.750;2023-02-10T03:56:36;-2.20;77.60
4376;DHT22;2202;50.866;12.750;2023-02-10T03:59:04;-2.10;77.60
4376;DHT22;2202;50.866;12.750;2023-02-10T04:01:32;-2.10;77.60
4376;DHT22;2202;50.866;12.750;2023-02-10T04:03:59;-2.10;78.00
4376;DHT22;2202;50.866;12.750;2023-02-10T04:06:26;-2.00;77.40
4376;DHT22;2202;50.866;12.750;2023-02-10T04:08:53;-2.00;77.00
4376;DHT22;2202;50.866;12.750;2023-02-10T04:11:22;-2.00;76.20
4376;DHT22;2202;50.866;12.750;2023-02-10T04:13:49;-1.90;76.40
4376;DHT22;2202;50.866;12.750;2023-02-10T04:16:16;-1.90;76.60
4376;DHT22;2202;50.866;12.750;2023-02-10T04:18:45;-1.80;78.20
4376;DHT22;2202;50.866;12.750;2023-02-10T04:21:12;-1.80;78.80
4376;DHT22;2202;50.866;12.750;2023-02-10T04:23:39;-1.80;78.00
4376;DHT22;2202;50.866;12.750;2023-02-10T04:26:06;-1.80;78.00
4376;DHT22;2202;50.866;12.750;2023-02-10T04:28:34;-1.80;77.60
4376;DHT22;2202;50.866;12.750;2023-02-10T04:31:01;-1.70;78.40
4376;DHT22;2202;50.866;12.750;2023-02-10T04:33:31;-1.80;78.80
4376;DHT22;2202;50.866;12.750;2023-02-10T04:35:58;-1.80;80.20
4376;DHT22;2202;50.866;12.750;2023-02-10T04:38:28;-1.90;83.60
4376;DHT22;2202;50.866;12.750;2023-02-10T04:40:55;-2.00;87.40
4376;DHT22;2202;50.866;12.750;2023-02-10T04:43:22;-2.20;90.90
4376;DHT22;2202;50.866;12.750;2023-02-10T04:45:50;-2.20;91.40
4376;DHT22;2202;50.866;12.750;2023-02-10T04:48:17;-2.30;92.20
4376;DHT22;2202;50.866;12.750;2023-02-10T04:50:45;-2.20;92.30
4376;DHT22;2202;50.866;12.750;2023-02-10T04:53:12;-2.20;92.20
4376;DHT22;2202;50.866;12.750;2023-02-10T04:55:39;-2.20;92.60
4376;DHT22;2202;50.866;12.750;2023-02-10T04:58:06;-2.10;92.60
4376;DHT22;2202;50.866;12.750;2023-02-10T05:00:33;-2.10;92.80
4376;DHT22;2202;50.866;12.750;2023-02-10T05:03:01;-2.10;92.90
4376;DHT22;2202;50.866;12.750;2023-02-10T05:05:28;-2.20;93.60
4376;DHT22;2202;50.866;12.750;2023-02-10T05:07:55;-2.20;94.00
4376;DHT22;2202;50.866;12.750;2023-02-10T05:10:22;-2.20;94.10
4376;DHT22;2202;50.866;12.750;2023-02-10T05:12:49;-2.10;94.20
4376;DHT22;2202;50.866;12.750;2023-02-10T05:15:16;-2.10;94.30
4376;DHT22;2202;50.866;12.750;2023-02-10T05:17:43;-2.10;94.30
4376;DHT22;2202;50.866;12.750;2023-02-10T05:20:11;-2.00;94.20
4376;DHT22;2202;50.866;12.750;2023-02-10T05:22:39;-2.10;94.10
4376;DHT22;2202;50.866;12.750;2023-02-10T05:25:07;-2.00;94.20
4376;DHT22;2202;50.866;12.750;2023-02-10T05:27:35;-2.00;93.80
4376;DHT22;2202;50.866;12.750;2023-02-10T05:30:03;-2.00;93.80
4376;DHT22;2202;50.866;12.750;2023-02-10T05:32:30;-1.90;93.80
4376;DHT22;2202;50.866;12.750;2023-02-10T05:34:57;-1.80;93.50
4376;DHT22;2202;50.866;12.750;2023-02-10T05:37:25;-1.80;93.10
4376;DHT22;2202;50.866;12.750;2023-02-10T05:39:52;-1.90;93.00
4376;DHT22;2202;50.866;12.750;2023-02-10T05:42:18;-1.90;93.00
4376;DHT22;2202;50.866;12.750;2023-02-10T05:44:45;-1.90;92.70
4376;DHT22;2202;50.866;12.750;2023-02-10T05:47:12;-1.90;92.90
4376;DHT22;2202;50.866;12.750;2023-02-10T05:49:39;-1.80;92.30
4376;DHT22;2202;50.866;12.750;2023-02-10T05:52:06;-1.80;92.00
4376;DHT22;2202;50.866;12.750;2023-02-10T05:54:34;-1.70;91.90
4376;DHT22;2202;50.866;12.750;2023-02-10T05:57:01;-1.70;91.80
4376;DHT22;2202;50.866;12.750;2023-02-10T05:59:28;-1.70;91.80
4376;DHT22;2202;50.866;12.750;2023-02-10T06:01:55;-1.70;92.00
4376;DHT22;2202;50.866;12.750;2023-02-10T06:04:22;-1.70;92.00
4376;DHT22;2202;50.866;12.750;2023-02-10T06:06:49;-1.70;92.20
4376;DHT22;2202;50.866;12.750;2023-02-10T06:09:15;-1.60;92.20
4376;DHT22;2202;50.866;12.750;2023-02-10T06:11:44;-1.50;91.90
4376;DHT22;2202;50.866;12.750;2023-02-10T06:14:11;-1.50;91.80
4376;DHT22;2202;50.866;12.750;2023-02-10T06:16:37;-1.50;91.80
4376;DHT22;2202;50.866;12.750;2023-02-10T06:19:04;-1.50;91.70
4376;DHT22;2202;50.866;12.750;2023-02-10T06:21:31;-1.40;91.70
4376;DHT22;2202;50.866;12.750;2023-02-10T06:23:58;-1.50;91.70
4376;DHT22;2202;50.866;12.750;2023-02-10T06:26:25;-1.60;91.80
4376;DHT22;2202;50.866;12.750;2023-02-10T06:28:54;-1.50;91.70
4376;DHT22;2202;50.866;12.750;2023-02-10T06:31:21;-1.40;91.70
4376;DHT22;2202;50.866;12.750;2023-02-10T06:33:49;-1.40;91.40
4376;DHT22;2202;50.866;12.750;2023-02-10T06:36:16;-1.30;91.30
4376;DHT22;2202;50.866;12.750;2023-02-10T06:38:43;-1.30;91.50
4376;DHT22;2202;50.866;12.750;2023-02-10T06:41:09;-1.30;91.40
4376;DHT22;2202;50.866;12.750;2023-02-10T06:43:36;-1.40;91.50
4376;DHT22;2202;50.866;12.750;2023-02-10T06:46:05;-1.40;91.90
4376;DHT22;2202;50.866;12.750;2023-02-10T06:48:32;-1.40;91.90
4376;DHT22;2202;50.866;12.750;2023-02-10T06:50:59;-1.30;91.70
4376;DHT22;2202;50.866;12.750;2023-02-10T06:53:26;-1.40;91.80
4376;DHT22;2202;50.866;12.750;2023-02-10T06:55:55;-1.40;91.80
4376;DHT22;2202;50.866;12.750;2023-02-10T06:58:22;-1.40;91.90
4376;DHT22;2202;50.866;12.750;2023-02-10T07:00:49;-1.30;91.80
4376;DHT22;2202;50.866;12.750;2023-02-10T07:03:17;-1.20;91.70
4376;DHT22;2202;50.866;12.750;2023-02-10T07:05:44;-1.20;91.60
4376;DHT22;2202;50.866;12.750;2023-02-10T07:08:11;-1.10;91.50
4376;DHT22;2202;50.866;12.750;2023-02-10T07:10:38;-1.10;91.50
4376;DHT22;2202;50.866;12.750;2023-02-10T07:13:06;-1.10;91.50
4376;DHT22;2202;50.866;12.750;2023-02-10T07:15:32;-1.00;91.50
4376;DHT22;2202;50.866;12.750;2023-02-10T07:17:59;-1.00;91.40
4376;DHT22;2202;50.866;12.750;2023-02-10T07:20:28;-1.00;91.30
4376;DHT22;2202;50.866;12.750;2023-02-10T07:22:55;-1.00;91.40
4376;DHT22;2202;50.866;12.750;2023-02-10T07:25:21;-1.00;91.60
4376;DHT22;2202;50.866;12.750;2023-02-10T07:27:48;-0.90;91.40
4376;DHT22;2202;50.866;12.750;2023-02-10T07:30:15;-0.80;91.10
4376;DHT22;2202;50.866;12.750;2023-02-10T07:32:42;-0.70;90.80
4376;DHT22;2202;50.866;12.750;2023-02-10T07:35:10;-0.70;90.80
4376;DHT22;2202;50.866;12.750;2023-02-10T07:37:39;-0.80;91.00
4376;DHT22;2202;50.866;12.750;2023-02-10T07:40:07;-0.70;91.30
4376;DHT22;2202;50.866;12.750;2023-02-10T07:42:34;-0.60;91.00
4376;DHT22;2202;50.866;12.750;2023-02-10T07:45:01;-0.50;91.00
4376;DHT22;2202;50.866;12.750;2023-02-10T07:47:28;-0.50;90.70
4376;DHT22;2202;50.866;12.750;2023-02-10T07:49:55;-0.50;91.00
4376;DHT22;2202;50.866;12.750;2023-02-10T07:52:22;-0.50;90.90
4376;DHT22;2202;50.866;12.750;2023-02-10T07:54:50;-0.40;90.80
4376;DHT22;2202;50.866;12.750;2023-02-10T07:57:17;-0.50;90.60
4376;DHT22;2202;50.866;12.750;2023-02-10T07:59:44;-0.40;90.90
4376;DHT22;2202;50.866;12.750;2023-02-10T08:02:11;-0.50;90.90
4376;DHT22;2202;50.866;12.750;2023-02-10T08:04:38;-0.50;91.60
4376;DHT22;2202;50.866;12.750;2023-02-10T08:07:05;-0.50;91.70
4376;DHT22;2202;50.866;12.750;2023-02-10T08:09:32;-0.50;91.60
4376;DHT22;2202;50.866;12.750;2023-02-10T08:12:00;-0.50;91.80
4376;DHT22;2202;50.866;12.750;2023-02-10T08:14:27;-0.50;91.90
4376;DHT22;2202;50.866;12.750;2023-02-10T08:16:54;-0.50;91.90
4376;DHT22;2202;50.866;12.750;2023-02-10T08:19:21;-0.60;92.10
4376;DHT22;2202;50.866;12.750;2023-02-10T08:21:48;-0.50;92.10
4376;DHT22;2202;50.866;12.750;2023-02-10T08:24:14;-0.40;91.90
4376;DHT22;2202;50.866;12.750;2023-02-10T08:26:41;-0.30;91.80
4376;DHT22;2202;50.866;12.750;2023-02-10T08:29:10;-0.20;91.60
4376;DHT22;2202;50.866;12.750;2023-02-10T08:31:38;-0.10;91.60
4376;DHT22;2202;50.866;12.750;2023-02-10T08:34:04;0.00;91.50
4376;DHT22;2202;50.866;12.750;2023-02-10T08:36:31;0.00;91.40
4376;DHT22;2202;50.866;12.750;2023-02-10T08:38:58;-0.20;91.90
4376;DHT22;2202;50.866;12.750;2023-02-10T08:41:25;-0.10;92.30
4376;DHT22;2202;50.866;12.750;2023-02-10T08:43:56;0.00;91.90
4376;DHT22;2202;50.866;12.750;2023-02-10T08:46:24;0.10;91.70
4376;DHT22;2202;50.866;12.750;2023-02-10T08:48:51;0.10;91.70
4376;DHT22;2202;50.866;12.750;2023-02-10T08:51:18;0.10;91.60
4376;DHT22;2202;50.866;12.750;2023-02-10T08:53:45;0.10;91.40
4376;DHT22;2202;50.866;12.750;2023-02-10T08:56:15;0.20;91.60
4376;DHT22;2202;50.866;12.750;2023-02-10T08:58:42;0.20;91.50
4376;DHT22;2202;50.866;12.750;2023-02-10T09:01:10;0.20;91.50
4376;DHT22;2202;50.866;12.750;2023-02-10T09:03:39;0.20;91.80
4376;DHT22;2202;50.866;12.750;2023-02-10T09:06:12;0.20;91.80
4376;DHT22;2202;50.866;12.750;2023-02-10T09:08:40;0.30;92.00
4376;DHT22;2202;50.866;12.750;2023-02-10T09:11:07;0.30;91.80
4376;DHT22;2202;50.866;12.750;2023-02-10T09:13:35;0.30;91.90
4376;DHT22;2202;50.866;12.750;2023-02-10T09:16:02;0.20;92.00
4376;DHT22;2202;50.866;12.750;2023-02-10T09:18:29;0.30;92.10
4376;DHT22;2202;50.866;12.750;2023-02-10T09:20:58;0.30;91.90
4376;DHT22;2202;50.866;12.750;2023-02-10T09:23:26;0.20;92.10
4376;DHT22;2202;50.866;12.750;2023-02-10T09:25:53;0.30;92.40
4376;DHT22;2202;50.866;12.750;2023-02-10T09:28:20;0.40;92.20
4376;DHT22;2202;50.866;12.750;2023-02-10T09:30:47;0.40;92.00
4376;DHT22;2202;50.866;12.750;2023-02-10T09:33:14;0.40;92.10
4376;DHT22;2202;50.866;12.750;2023-02-10T09:35:41;0.40;91.90
4376;DHT22;2202;50.866;12.750;2023-02-10T09:38:11;0.60;92.10
4376;DHT22;2202;50.866;12.750;2023-02-10T09:40:48;0.70;91.60
4376;DHT22;2202;50.866;12.750;2023-02-10T09:43:33;0.90;91.00
4376;DHT22;2202;50.866;12.750;2023-02-10T09:46:12;0.80;91.00
4376;DHT22;2202;50.866;12.750;2023-02-10T09:48:52;0.70;90.70
4376;DHT22;2202;50.866;12.750;2023-02-10T09:51:33;0.70;90.70
4376;DHT22;2202;50.866;12.750;2023-02-10T09:54:07;0.70;90.20
4376;DHT22;2202;50.866;12.750;2023-02-10T09:56:34;0.80;90.50
4376;DHT22;2202;50.866;12.750;2023-02-10T09:59:02;0.80;90.30
4376;DHT22;2202;50.866;12.750;2023-02-10T10:01:37;0.90;90.80
4376;DHT22;2202;50.866;12.750;2023-02-10T10:04:07;0.90;90.00
4376;DHT22;2202;50.866;12.750;2023-02-10T10:06:37;0.80;90.30
4376;DHT22;2202;50.866;12.750;2023-02-10T10:09:18;0.90;90.40
4376;DHT22;2202;50.866;12.750;2023-02-10T10:11:49;1.00;90.10
4376;DHT22;2202;50.866;12.750;2023-02-10T10:14:18;1.10;89.40
4376;DHT22;2202;50.866;12.750;2023-02-10T10:17:05;0.80;89.40
4376;DHT22;2202;50.866;12.750;2023-02-10T10:19:44;0.70;91.00
4376;DHT22;2202;50.866;12.750;2023-02-10T10:22:25;1.00;90.70
4376;DHT22;2202;50.866;12.750;2023-02-10T10:25:16;1.30;90.30
4376;DHT22;2202;50.866;12.750;2023-02-10T10:27:54;1.20;88.80
4376;DHT22;2202;50.866;12.750;2023-02-10T10:30:27;1.40;88.80
4376;DHT22;2202;50.866;12.750;2023-02-10T10:32:59;1.60;88.60
4376;DHT22;2202;50.866;12.750;2023-02-10T10:35:31;1.80;87.40
4376;DHT22;2202;50.866;12.750;2023-02-10T10:38:08;1.80;85.80
4376;DHT22;2202;50.866;12.750;2023-02-10T10:40:39;1.90;85.80
4376;DHT22;2202;50.866;12.750;2023-02-10T10:43:13;2.00;85.20
4376;DHT22;2202;50.866;12.750;2023-02-10T10:45:46;1.90;85.00
4376;DHT22;2202;50.866;12.750;2023-02-10T10:48:16;1.70;87.00
4376;DHT22;2202;50.866;12.750;2023-02-10T10:50:44;1.70;87.20
4376;DHT22;2202;50.866;12.750;2023-02-10T10:53:14;1.40;88.20
4376;DHT22;2202;50.866;12.750;2023-02-10T10:55:47;1.20;89.40
4376;DHT22;2202;50.866;12.750;2023-02-10T10:58:23;1.40;90.20
4376;DHT22;2202;50.866;12.750;2023-02-10T11:00:52;1.50;89.80
4376;DHT22;2202;50.866;12.750;2023-02-10T11:03:19;1.60;89.00
4376;DHT22;2202;50.866;12.750;2023-02-10T11:05:58;1.80;88.00
4376;DHT22;2202;50.866;12.750;2023-02-10T11:08:27;1.70;88.60
4376;DHT22;2202;50.866;12.750;2023-02-10T11:10:58;1.80;89.40
4376;DHT22;2202;50.866;12.750;2023-02-10T11:13:28;1.90;88.20
4376;DHT22;2202;50.866;12.750;2023-02-10T11:16:01;1.90;86.60
4376;DHT22;2202;50.866;12.750;2023-02-10T11:18:29;1.80;87.80
4376;DHT22;2202;50.866;12.750;2023-02-10T11:20:58;1.70;88.40
4376;DHT22;2202;50.866;12.750;2023-02-10T11:23:26;1.70;88.80
4376;DHT22;2202;50.866;12.750;2023-02-10T11:26:01;1.90;89.00
4376;DHT22;2202;50.866;12.750;2023-02-10T11:28:30;2.10;87.80
4376;DHT22;2202;50.866;12.750;2023-02-10T11:31:00;2.10;86.80
4376;DHT22;2202;50.866;12.750;2023-02-10T11:33:30;2.30;87.00
4376;DHT22;2202;50.866;12.750;2023-02-10T11:36:02;2.10;86.00
4376;DHT22;2202;50.866;12.750;2023-02-10T11:38:29;2.20;87.20
4376;DHT22;2202;50.866;12.750;2023-02-10T11:41:00;2.10;86.20
4376;DHT22;2202;50.866;12.750;2023-02-10T11:43:31;2.00;86.80
4376;DHT22;2202;50.866;12.750;2023-02-10T11:46:01;1.90;87.60
4376;DHT22;2202;50.866;12.750;2023-02-10T11:48:30;1.90;88.40
4376;DHT22;2202;50.866;12.750;2023-02-10T11:51:02;1.90;88.20
4376;DHT22;2202;50.866;12.750;2023-02-10T11:53:33;1.90;88.60
4376;DHT22;2202;50.866;12.750;2023-02-10T11:56:05;2.00;88.60
4376;DHT22;2202;50.866;12.750;2023-02-10T11:58:44;2.20;88.40
4376;DHT22;2202;50.866;12.750;2023-02-10T12:01:38;2.40;87.80
4376;DHT22;2202;50.866;12.750;2023-02-10T12:04:19;2.30;86.20
4376;DHT22;2202;50.866;12.750;2023-02-10T12:06:54;2.30;87.60
4376;DHT22;2202;50.866;12.750;2023-02-10T12:09:27;2.40;87.60
4376;DHT22;2202;50.866;12.750;2023-02-10T12:12:02;2.50;86.40
4376;DHT22;2202;50.866;12.750;2023-02-10T12:14:46;2.50;86.60
4376;DHT22;2202;50.866;12.750;2023-02-10T12:17:24;2.50;85.60
4376;DHT22;2202;50.866;12.750;2023-02-10T12:20:01;2.60;86.00
4376;DHT22;2202;50.866;12.750;2023-02-10T12:22:33;2.30;86.20
4376;DHT22;2202;50.866;12.750;2023-02-10T12:25:09;2.30;86.80
4376;DHT22;2202;50.866;12.750;2023-02-10T12:27:51;2.20;87.00
4376;DHT22;2202;50.866;12.750;2023-02-10T12:30:31;2.30;86.40
4376;DHT22;2202;50.866;12.750;2023-02-10T12:33:09;2.20;86.80
4376;DHT22;2202;50.866;12.750;2023-02-10T12:35:48;2.20;86.60
4376;DHT22;2202;50.866;12.750;2023-02-10T12:38:34;2.30;86.80
4376;DHT22;2202;50.866;12.750;2023-02-10T12:41:11;2.40;86.60
4376;DHT22;2202;50.866;12.750;2023-02-10T12:44:02;2.70;86.00
4376;DHT22;2202;50.866;12.750;2023-02-10T12:46:37;2.50;85.40
4376;DHT22;2202;50.866;12.750;2023-02-10T12:49:15;2.50;85.40
4376;DHT22;2202;50.866;12.750;2023-02-10T12:52:04;2.70;86.60
4376;DHT22;2202;50.866;12.750;2023-02-10T12:54:36;2.90;84.60
4376;DHT22;2202;50.866;12.750;2023-02-10T12:57:08;3.10;84.00
4376;DHT22;2202;50.866;12.750;2023-02-10T12:59:43;3.20;82.60
4376;DHT22;2202;50.866;12.750;2023-02-10T13:02:14;3.20;82.00
4376;DHT22;2202;50.866;12.750;2023-02-10T13:04:45;3.20;81.00
4376;DHT22;2202;50.866;12.750;2023-02-10T13:07:19;3.00;81.80
4376;DHT22;2202;50.866;12.750;2023-02-10T13:09:55;3.00;82.60
4376;DHT22;2202;50.866;12.750;2023-02-10T13:12:26;3.00;83.20
4376;DHT22;2202;50.866;12.750;2023-02-10T13:14:59;3.10;82.00
4376;DHT22;2202;50.866;12.750;2023-02-10T13:17:36;3.20;81.60
4376;DHT22;2202;50.866;12.750;2023-02-10T13:20:13;3.40;81.40
4376;DHT22;2202;50.866;12.750;2023-02-10T13:22:50;3.50;79.60
4376;DHT22;2202;50.866;12.750;2023-02-10T13:25:24;3.40;77.80
4376;DHT22;2202;50.866;12.750;2023-02-10T13:27:59;3.30;80.00
4376;DHT22;2202;50.866;12.750;2023-02-10T13:30:55;3.40;78.60
4376;DHT22;2202;50.866;12.750;2023-02-10T13:33:31;3.50;77.20
4376;DHT22;2202;50.866;12.750;2023-02-10T13:36:02;3.50;78.40
4376;DHT22;2202;50.866;12.750;2023-02-10T13:38:32;3.60;78.60
4376;DHT22;2202;50.866;12.750;2023-02-10T13:41:00;3.80;78.60
4376;DHT22;2202;50.866;12.750;2023-02-10T13:43:42;3.90;77.40
4376;DHT22;2202;50.866;12.750;2023-02-10T13:46:20;4.00;76.20
4376;DHT22;2202;50.866;12.750;2023-02-10T13:48:52;4.10;76.40
4376;DHT22;2202;50.866;12.750;2023-02-10T13:51:29;4.00;75.40
4376;DHT22;2202;50.866;12.750;2023-02-10T13:53:56;4.00;75.00
4376;DHT22;2202;50.866;12.750;2023-02-10T13:56:28;3.90;75.60
4376;DHT22;2202;50.866;12.750;2023-02-10T13:58:56;3.80;76.40
4376;DHT22;2202;50.866;12.750;2023-02-10T14:01:38;3.90;75.80
4376;DHT22;2202;50.866;12.750;2023-02-10T14:04:06;3.80;75.60
4376;DHT22;2202;50.866;12.750;2023-02-10T14:06:36;3.70;76.60
4376;DHT22;2202;50.866;12.750;2023-02-10T14:09:05;3.70;77.00
4376;DHT22;2202;50.866;12.750;2023-02-10T14:11:39;3.60;77.40
4376;DHT22;2202;50.866;12.750;2023-02-10T14:14:19;3.80;76.60
4376;DHT22;2202;50.866;12.750;2023-02-10T14:16:49;3.80;76.80
4376;DHT22;2202;50.866;12.750;2023-02-10T14:19:23;3.90;76.60
4376;DHT22;2202;50.866;12.750;2023-02-10T14:21:51;3.90;76.20
4376;DHT22;2202;50.866;12.750;2023-02-10T14:24:23;4.00;76.40
4376;DHT22;2202;50.866;12.750;2023-02-10T14:26:51;3.80;75.80
4376;DHT22;2202;50.866;12.750;2023-02-10T14:29:19;3.90;77.00
4376;DHT22;2202;50.866;12.750;2023-02-10T14:31:52;4.10;76.20
4376;DHT22;2202;50.866;12.750;2023-02-10T14:34:22;4.10;75.40
4376;DHT22;2202;50.866;12.750;2023-02-10T14:36:50;4.10;75.60
4376;DHT22;2202;50.866;12.750;2023-02-10T14:39:20;4.10;75.00
4376;DHT22;2202;50.866;12.750;2023-02-10T14:41:47;4.10;76.00
4376;DHT22;2202;50.866;12.750;2023-02-10T14:44:24;4.00;75.20
4376;DHT22;2202;50.866;12.750;2023-02-10T14:46:53;3.90;75.60
4376;DHT22;2202;50.866;12.750;2023-02-10T14:49:21;3.90;75.80
4376;DHT22;2202;50.866;12.750;2023-02-10T14:51:49;3.90;76.00
4376;DHT22;2202;50.866;12.750;2023-02-10T14:54:17;3.80;75.40
4376;DHT22;2202;50.866;12.750;2023-02-10T14:56:50;3.80;76.00
4376;DHT22;2202;50.866;12.750;2023-02-10T14:59:22;3.70;77.00
4376;DHT22;2202;50.866;12.750;2023-02-10T15:01:52;3.80;77.60
4376;DHT22;2202;50.866;12.750;2023-02-10T15:04:20;3.70;76.00
4376;DHT22;2202;50.866;12.750;2023-02-10T15:06:52;3.70;77.40
4376;DHT22;2202;50.866;12.750;2023-02-10T15:09:23;3.80;76.80
4376;DHT22;2202;50.866;12.750;2023-02-10T15:11:55;3.80;76.80
4376;DHT22;2202;50.866;12.750;2023-02-10T15:14:43;3.80;77.00
4376;DHT22;2202;50.866;12.750;2023-02-10T15:17:15;3.70;76.60
4376;DHT22;2202;50.866;12.750;2023-02-10T15:19:55;3.70;77.20
4376;DHT22;2202;50.866;12.750;2023-02-10T15:22:37;3.80;77.20
4376;DHT22;2202;50.866;12.750;2023-02-10T15:25:30;3.80;77.60
4376;DHT22;2202;50.866;12.750;2023-02-10T15:28:00;3.70;77.80
4376;DHT22;2202;50.866;12.750;2023-02-10T15:30:28;3.70;77.60
4376;DHT22;2202;50.866;12.750;2023-02-10T15:32:58;3.70;77.40
4376;DHT22;2202;50.866;12.750;2023-02-10T15:35:26;3.60;77.40
4376;DHT22;2202;50.866;12.750;2023-02-10T15:37:56;3.60;77.40
4376;DHT22;2202;50.866;12.750;2023-02-10T15:40:26;3.50;77.40
4376;DHT22;2202;50.866;12.750;2023-02-10T15:42:58;3.40;77.80
4376;DHT22;2202;50.866;12.750;2023-02-10T15:45:28;3.30;78.40
4376;DHT22;2202;50.866;12.750;2023-02-10T15:48:01;3.20;78.60
4376;DHT22;2202;50.866;12.750;2023-02-10T15:50:30;3.20;78.40
4376;DHT22;2202;50.866;12.750;2023-02-10T15:52:57;3.10;78.40
4376;DHT22;2202;50.866;12.750;2023-02-10T15:55:29;3.00;78.60
4376;DHT22;2202;50.866;12.750;2023-02-10T15:57:56;2.90;78.60
4376;DHT22;2202;50.866;12.750;2023-02-10T16:00:26;2.80;78.80
4376;DHT22;2202;50.866;12.750;2023-02-10T16:02:53;2.70;79.20
4376;DHT22;2202;50.866;12.750;2023-02-10T16:05:22;2.60;79.60
4376;DHT22;2202;50.866;12.750;2023-02-10T16:07:50;2.50;79.80
4376;DHT22;2202;50.866;12.750;2023-02-10T16:10:20;2.40;80.00
4376;DHT22;2202;50.866;12.750;2023-02-10T16:12:47;2.30;80.60